Terminal Aerodrome Forecast
Issued by NWS Grand Forks, ND

Home | Current Version | Previous Version | Graphics & Text | Print | Product List | Glossary On
Versions: 1 2 3 4 5 6 7 8 9 10 11 12 13 14 15 16 17 18 19
000
FTUS43 KFGF 251120
TAFFAR
TAF
KFAR 251120Z 2512/2612 19005KT P6SM SKC
      TEMPO 2512/2513 4SM BR
     FM251300 21010G17KT P6SM FEW250
     FM260100 16004KT P6SM BKN200=

USA.gov is the U.S. government's official web portal to all federal, state and local government web resources and services.